sensor_id;sensor_type;location;lat;lon;timestamp;pressure;altitude;pressure_sealevel;temperature;humidity
69689;BME280;56932;38.402;-96.176;2023-01-31T00:00:05;98879.69;;;17.52;13.54
69689;BME280;56932;38.402;-96.176;2023-01-31T00:02:30;98880.14;;;18.10;13.40
69689;BME280;56932;38.402;-96.176;2023-01-31T00:04:55;98888.27;;;18.26;13.66
69689;BME280;56932;38.402;-96.176;2023-01-31T00:07:20;98895.60;;;18.50;13.89
69689;BME280;56932;38.402;-96.176;2023-01-31T00:09:46;98902.22;;;18.28;14.71
69689;BME280;56932;38.402;-96.176;2023-01-31T00:12:12;98910.51;;;17.78;15.38
69689;BME280;56932;38.402;-96.176;2023-01-31T00:14:37;98910.71;;;18.65;16.12
69689;BME280;56932;38.402;-96.176;2023-01-31T00:17:03;98910.61;;;18.76;16.28
69689;BME280;56932;38.402;-96.176;2023-01-31T00:19:29;98913.71;;;18.72;16.65
69689;BME280;56932;38.402;-96.176;2023-01-31T00:21:54;98913.44;;;19.04;16.72
69689;BME280;56932;38.402;-96.176;2023-01-31T00:24:20;98917.41;;;18.77;16.69
69689;BME280;56932;38.402;-96.176;2023-01-31T00:26:45;98922.70;;;18.85;16.93
69689;BME280;56932;38.402;-96.176;2023-01-31T00:29:11;98926.21;;;18.82;16.96
69689;BME280;56932;38.402;-96.176;2023-01-31T00:31:36;98933.33;;;19.22;16.80
69689;BME280;56932;38.402;-96.176;2023-01-31T00:34:03;98933.97;;;19.04;16.99
69689;BME280;56932;38.402;-96.176;2023-01-31T00:36:30;98935.84;;;19.65;16.25
69689;BME280;56932;38.402;-96.176;2023-01-31T00:38:55;98940.83;;;20.06;15.92
69689;BME280;56932;38.402;-96.176;2023-01-31T00:41:20;98941.27;;;19.44;15.96
69689;BME280;56932;38.402;-96.176;2023-01-31T00:43:44;98947.69;;;20.19;15.52
69689;BME280;56932;38.402;-96.176;2023-01-31T00:46:10;98948.74;;;19.31;15.57
69689;BME280;56932;38.402;-96.176;2023-01-31T00:48:35;98954.92;;;19.63;15.50
69689;BME280;56932;38.402;-96.176;2023-01-31T00:51:01;98962.69;;;20.80;14.69
69689;BME280;56932;38.402;-96.176;2023-01-31T00:53:26;98964.90;;;19.28;15.25
69689;BME280;56932;38.402;-96.176;2023-01-31T00:55:53;98969.43;;;19.76;14.99
69689;BME280;56932;38.402;-96.176;2023-01-31T00:58:18;98976.75;;;20.32;14.27
69689;BME280;56932;38.402;-96.176;2023-01-31T01:00:43;98980.79;;;20.68;14.07
69689;BME280;56932;38.402;-96.176;2023-01-31T01:03:09;98984.95;;;21.06;13.75
69689;BME280;56932;38.402;-96.176;2023-01-31T01:05:34;98985.59;;;20.62;13.91
69689;BME280;56932;38.402;-96.176;2023-01-31T01:07:59;98986.81;;;21.13;13.69
69689;BME280;56932;38.402;-96.176;2023-01-31T01:10:25;98985.05;;;20.77;13.65
69689;BME280;56932;38.402;-96.176;2023-01-31T01:12:51;98982.11;;;21.13;13.49
69689;BME280;56932;38.402;-96.176;2023-01-31T01:15:18;98984.59;;;20.92;13.40
69689;BME280;56932;38.402;-96.176;2023-01-31T01:17:42;98982.39;;;20.99;13.46
69689;BME280;56932;38.402;-96.176;2023-01-31T01:20:09;98974.93;;;20.94;13.43
69689;BME280;56932;38.402;-96.176;2023-01-31T01:22:33;98977.79;;;20.76;13.19
69689;BME280;56932;38.402;-96.176;2023-01-31T01:24:59;98977.42;;;20.92;13.15
69689;BME280;56932;38.402;-96.176;2023-01-31T01:27:24;98981.01;;;20.56;13.18
69689;BME280;56932;38.402;-96.176;2023-01-31T01:29:50;98982.01;;;21.04;13.12
69689;BME280;56932;38.402;-96.176;2023-01-31T01:32:15;98985.06;;;20.55;13.19
69689;BME280;56932;38.402;-96.176;2023-01-31T01:34:41;98994.25;;;20.91;13.05
69689;BME280;56932;38.402;-96.176;2023-01-31T01:37:08;99003.13;;;20.45;13.08
69689;BME280;56932;38.402;-96.176;2023-01-31T01:39:32;99002.88;;;20.20;13.11
69689;BME280;56932;38.402;-96.176;2023-01-31T01:41:57;99006.33;;;20.21;13.11
69689;BME280;56932;38.402;-96.176;2023-01-31T01:46:49;99005.68;;;20.92;12.89
69689;BME280;56932;38.402;-96.176;2023-01-31T01:49:17;99005.86;;;20.28;13.44
69689;BME280;56932;38.402;-96.176;2023-01-31T01:51:40;98998.55;;;20.52;14.00
69689;BME280;56932;38.402;-96.176;2023-01-31T01:54:10;99000.65;;;20.27;14.35
69689;BME280;56932;38.402;-96.176;2023-01-31T01:56:33;99004.32;;;19.93;14.89
69689;BME280;56932;38.402;-96.176;2023-01-31T01:59:00;99008.21;;;20.39;14.95
69689;BME280;56932;38.402;-96.176;2023-01-31T02:01:23;99011.11;;;20.50;14.78
69689;BME280;56932;38.402;-96.176;2023-01-31T02:03:48;99021.26;;;20.71;14.76
69689;BME280;56932;38.402;-96.176;2023-01-31T02:06:13;99020.11;;;20.12;14.97
69689;BME280;56932;38.402;-96.176;2023-01-31T02:08:39;99024.19;;;20.30;15.02
69689;BME280;56932;38.402;-96.176;2023-01-31T02:11:09;99019.95;;;20.30;14.93
69689;BME280;56932;38.402;-96.176;2023-01-31T02:13:31;99025.71;;;20.30;14.91
69689;BME280;56932;38.402;-96.176;2023-01-31T02:15:56;99027.19;;;20.00;15.00
69689;BME280;56932;38.402;-96.176;2023-01-31T02:18:22;99028.49;;;19.99;14.81
69689;BME280;56932;38.402;-96.176;2023-01-31T02:21:04;99024.45;;;20.13;14.80
69689;BME280;56932;38.402;-96.176;2023-01-31T02:25:49;99025.17;;;20.35;14.52
69689;BME280;56932;38.402;-96.176;2023-01-31T02:30:43;99027.74;;;20.13;14.61
69689;BME280;56932;38.402;-96.176;2023-01-31T02:33:02;99033.63;;;19.72;14.65
69689;BME280;56932;38.402;-96.176;2023-01-31T02:35:29;99033.19;;;19.45;14.55
69689;BME280;56932;38.402;-96.176;2023-01-31T02:37:52;99039.03;;;19.84;14.50
69689;BME280;56932;38.402;-96.176;2023-01-31T02:40:16;99042.03;;;19.21;14.52
69689;BME280;56932;38.402;-96.176;2023-01-31T02:42:44;99041.83;;;19.37;14.46
69689;BME280;56932;38.402;-96.176;2023-01-31T02:45:06;99038.10;;;19.94;14.10
69689;BME280;56932;38.402;-96.176;2023-01-31T02:47:34;99040.54;;;19.78;14.08
69689;BME280;56932;38.402;-96.176;2023-01-31T02:49:57;99039.87;;;19.67;14.04
69689;BME280;56932;38.402;-96.176;2023-01-31T02:52:23;99041.43;;;20.18;13.80
69689;BME280;56932;38.402;-96.176;2023-01-31T02:54:51;99046.50;;;19.50;14.12
69689;BME280;56932;38.402;-96.176;2023-01-31T02:57:10;99047.03;;;19.38;13.96
69689;BME280;56932;38.402;-96.176;2023-01-31T02:59:34;99050.71;;;19.82;13.69
69689;BME280;56932;38.402;-96.176;2023-01-31T03:02:01;99053.84;;;19.71;13.98
69689;BME280;56932;38.402;-96.176;2023-01-31T03:04:30;99056.89;;;19.65;13.92
69689;BME280;56932;38.402;-96.176;2023-01-31T03:06:59;99063.19;;;19.34;14.04
69689;BME280;56932;38.402;-96.176;2023-01-31T03:09:21;99058.64;;;19.34;13.78
69689;BME280;56932;38.402;-96.176;2023-01-31T03:11:49;99060.02;;;19.43;13.88
69689;BME280;56932;38.402;-96.176;2023-01-31T03:14:14;99061.57;;;19.35;13.89
69689;BME280;56932;38.402;-96.176;2023-01-31T03:16:39;99059.11;;;19.53;13.77
69689;BME280;56932;38.402;-96.176;2023-01-31T03:19:05;99055.30;;;19.37;13.75
69689;BME280;56932;38.402;-96.176;2023-01-31T03:21:28;99063.49;;;19.37;13.83
69689;BME280;56932;38.402;-96.176;2023-01-31T03:23:53;99061.56;;;18.85;13.98
69689;BME280;56932;38.402;-96.176;2023-01-31T03:26:17;99065.22;;;19.07;13.76
69689;BME280;56932;38.402;-96.176;2023-01-31T03:28:42;99069.09;;;19.54;13.73
69689;BME280;56932;38.402;-96.176;2023-01-31T03:31:12;99073.03;;;19.23;13.84
69689;BME280;56932;38.402;-96.176;2023-01-31T03:33:36;99073.57;;;19.26;13.79
69689;BME280;56932;38.402;-96.176;2023-01-31T03:36:04;99080.23;;;19.84;13.68
69689;BME280;56932;38.402;-96.176;2023-01-31T03:38:26;99083.98;;;18.99;13.87
69689;BME280;56932;38.402;-96.176;2023-01-31T03:40:55;99080.21;;;19.26;13.65
69689;BME280;56932;38.402;-96.176;2023-01-31T03:43:20;99081.16;;;18.74;13.55
69689;BME280;56932;38.402;-96.176;2023-01-31T03:45:44;99084.40;;;19.12;13.43
69689;BME280;56932;38.402;-96.176;2023-01-31T03:48:08;99086.00;;;18.98;13.44
69689;BME280;56932;38.402;-96.176;2023-01-31T03:50:36;99083.18;;;18.90;13.44
69689;BME280;56932;38.402;-96.176;2023-01-31T03:53:00;99082.44;;;18.92;13.39
69689;BME280;56932;38.402;-96.176;2023-01-31T03:55:29;99078.95;;;19.22;13.20
69689;BME280;56932;38.402;-96.176;2023-01-31T03:57:51;99082.82;;;19.34;13.39
69689;BME280;56932;38.402;-96.176;2023-01-31T04:00:16;99083.37;;;18.37;13.48
69689;BME280;56932;38.402;-96.176;2023-01-31T04:02:40;99084.27;;;17.80;14.03
69689;BME280;56932;38.402;-96.176;2023-01-31T04:05:09;99085.53;;;17.95;14.05
69689;BME280;56932;38.402;-96.176;2023-01-31T04:07:31;99092.60;;;17.88;13.97
69689;BME280;56932;38.402;-96.176;2023-01-31T04:09:57;99094.82;;;18.91;13.59
69689;BME280;56932;38.402;-96.176;2023-01-31T04:12:22;99098.60;;;17.65;14.36
69689;BME280;56932;38.402;-96.176;2023-01-31T04:14:48;99106.09;;;17.47;14.51
69689;BME280;56932;38.402;-96.176;2023-01-31T04:17:13;99103.49;;;17.82;14.09
69689;BME280;56932;38.402;-96.176;2023-01-31T04:19:39;99103.15;;;18.15;14.12
69689;BME280;56932;38.402;-96.176;2023-01-31T04:22:05;99101.86;;;17.61;14.43
69689;BME280;56932;38.402;-96.176;2023-01-31T04:24:30;99097.53;;;18.14;14.22
69689;BME280;56932;38.402;-96.176;2023-01-31T04:26:56;99107.85;;;18.25;14.19
69689;BME280;56932;38.402;-96.176;2023-01-31T04:29:21;99108.86;;;18.26;14.08
69689;BME280;56932;38.402;-96.176;2023-01-31T04:31:47;99106.11;;;18.52;13.97
69689;BME280;56932;38.402;-96.176;2023-01-31T04:34:13;99103.30;;;18.02;14.14
69689;BME280;56932;38.402;-96.176;2023-01-31T04:36:38;99112.04;;;18.28;14.13
69689;BME280;56932;38.402;-96.176;2023-01-31T04:39:03;99114.03;;;18.23;14.18
69689;BME280;56932;38.402;-96.176;2023-01-31T04:41:29;99114.26;;;18.37;14.13
69689;BME280;56932;38.402;-96.176;2023-01-31T04:43:55;99110.85;;;18.62;14.03
69689;BME280;56932;38.402;-96.176;2023-01-31T04:46:20;99107.95;;;18.57;13.96
69689;BME280;56932;38.402;-96.176;2023-01-31T04:48:46;99107.44;;;18.78;14.14
69689;BME280;56932;38.402;-96.176;2023-01-31T04:51:12;99109.80;;;18.05;14.13
69689;BME280;56932;38.402;-96.176;2023-01-31T04:53:37;99111.16;;;19.21;13.80
69689;BME280;56932;38.402;-96.176;2023-01-31T04:56:03;99110.23;;;18.82;13.99
69689;BME280;56932;38.402;-96.176;2023-01-31T04:58:28;99108.47;;;18.79;13.89
69689;BME280;56932;38.402;-96.176;2023-01-31T05:00:54;99110.57;;;18.71;13.92
69689;BME280;56932;38.402;-96.176;2023-01-31T05:03:19;99110.78;;;18.83;13.75
69689;BME280;56932;38.402;-96.176;2023-01-31T05:05:47;99113.44;;;18.29;14.06
69689;BME280;56932;38.402;-96.176;2023-01-31T05:08:11;99120.92;;;18.42;14.02
69689;BME280;56932;38.402;-96.176;2023-01-31T05:10:36;99124.49;;;18.93;13.84
69689;BME280;56932;38.402;-96.176;2023-01-31T05:13:01;99125.55;;;18.24;14.32
69689;BME280;56932;38.402;-96.176;2023-01-31T05:15:27;99128.44;;;19.10;13.73
69689;BME280;56932;38.402;-96.176;2023-01-31T05:17:53;99125.39;;;18.81;13.97
69689;BME280;56932;38.402;-96.176;2023-01-31T05:20:18;99134.74;;;18.27;14.10
69689;BME280;56932;38.402;-96.176;2023-01-31T05:22:46;99141.68;;;19.12;13.64
69689;BME280;56932;38.402;-96.176;2023-01-31T05:25:10;99135.62;;;18.50;13.91
69689;BME280;56932;38.402;-96.176;2023-01-31T05:27:35;99137.73;;;18.95;13.81
69689;BME280;56932;38.402;-96.176;2023-01-31T05:30:00;99136.61;;;20.09;13.17
69689;BME280;56932;38.402;-96.176;2023-01-31T05:32:26;99136.26;;;18.71;13.72
69689;BME280;56932;38.402;-96.176;2023-01-31T05:34:51;99143.05;;;19.48;13.35
69689;BME280;56932;38.402;-96.176;2023-01-31T05:37:17;99137.06;;;19.57;13.10
69689;BME280;56932;38.402;-96.176;2023-01-31T05:39:43;99137.50;;;19.87;12.95
69689;BME280;56932;38.402;-96.176;2023-01-31T05:42:09;99135.34;;;20.35;12.73
69689;BME280;56932;38.402;-96.176;2023-01-31T05:44:34;99133.61;;;20.21;12.64
69689;BME280;56932;38.402;-96.176;2023-01-31T05:46:59;99130.71;;;20.90;12.40
69689;BME280;56932;38.402;-96.176;2023-01-31T05:49:25;99134.16;;;20.79;12.28
69689;BME280;56932;38.402;-96.176;2023-01-31T05:51:50;99132.42;;;20.69;12.26
69689;BME280;56932;38.402;-96.176;2023-01-31T05:54:16;99135.15;;;20.18;12.34
69689;BME280;56932;38.402;-96.176;2023-01-31T05:56:42;99133.81;;;20.32;12.30
69689;BME280;56932;38.402;-96.176;2023-01-31T05:59:08;99136.38;;;20.04;12.51
69689;BME280;56932;38.402;-96.176;2023-01-31T06:01:33;99136.12;;;20.40;12.31
69689;BME280;56932;38.402;-96.176;2023-01-31T06:03:58;99132.68;;;20.48;12.26
69689;BME280;56932;38.402;-96.176;2023-01-31T06:06:23;99134.86;;;20.33;12.03
69689;BME280;56932;38.402;-96.176;2023-01-31T06:08:49;99132.99;;;20.63;11.92
69689;BME280;56932;38.402;-96.176;2023-01-31T06:11:14;99123.62;;;19.73;12.12
69689;BME280;56932;38.402;-96.176;2023-01-31T06:13:41;99122.20;;;20.49;12.13
69689;BME280;56932;38.402;-96.176;2023-01-31T06:16:06;99121.73;;;20.05;12.29
69689;BME280;56932;38.402;-96.176;2023-01-31T06:18:32;99123.50;;;19.86;12.32
69689;BME280;56932;38.402;-96.176;2023-01-31T06:20:57;99120.16;;;19.95;12.27
69689;BME280;56932;38.402;-96.176;2023-01-31T06:23:23;99116.23;;;19.56;12.27
69689;BME280;56932;38.402;-96.176;2023-01-31T06:25:49;99114.51;;;19.82;12.24
69689;BME280;56932;38.402;-96.176;2023-01-31T06:28:14;99103.02;;;19.42;12.23
69689;BME280;56932;38.402;-96.176;2023-01-31T06:30:39;99095.99;;;19.54;12.33
69689;BME280;56932;38.402;-96.176;2023-01-31T06:33:05;99102.11;;;19.61;12.27
69689;BME280;56932;38.402;-96.176;2023-01-31T06:35:30;99095.89;;;19.85;12.22
69689;BME280;56932;38.402;-96.176;2023-01-31T06:37:56;99096.06;;;19.41;12.28
69689;BME280;56932;38.402;-96.176;2023-01-31T06:40:22;99095.98;;;19.62;12.13
69689;BME280;56932;38.402;-96.176;2023-01-31T06:42:47;99094.54;;;19.56;12.16
69689;BME280;56932;38.402;-96.176;2023-01-31T06:45:13;99096.49;;;18.95;12.26
69689;BME280;56932;38.402;-96.176;2023-01-31T06:47:38;99098.02;;;18.66;12.55
69689;BME280;56932;38.402;-96.176;2023-01-31T06:50:05;99094.82;;;19.46;12.25
69689;BME280;56932;38.402;-96.176;2023-01-31T06:52:29;99087.24;;;19.30;12.16
69689;BME280;56932;38.402;-96.176;2023-01-31T06:54:55;99083.82;;;19.33;12.23
69689;BME280;56932;38.402;-96.176;2023-01-31T06:57:21;99078.41;;;19.18;12.13
69689;BME280;56932;38.402;-96.176;2023-01-31T06:59:47;99076.01;;;19.26;12.19
69689;BME280;56932;38.402;-96.176;2023-01-31T07:02:12;99074.23;;;18.99;12.15
69689;BME280;56932;38.402;-96.176;2023-01-31T07:04:38;99076.90;;;19.52;12.20
69689;BME280;56932;38.402;-96.176;2023-01-31T07:07:03;99076.08;;;19.54;12.05
69689;BME280;56932;38.402;-96.176;2023-01-31T07:09:29;99072.91;;;19.00;12.20
69689;BME280;56932;38.402;-96.176;2023-01-31T07:11:54;99063.45;;;19.38;12.08
69689;BME280;56932;38.402;-96.176;2023-01-31T07:14:20;99058.71;;;19.12;12.11
69689;BME280;56932;38.402;-96.176;2023-01-31T07:16:45;99059.80;;;19.39;12.06
69689;BME280;56932;38.402;-96.176;2023-01-31T07:19:11;99051.40;;;19.24;12.02
69689;BME280;56932;38.402;-96.176;2023-01-31T07:21:37;99046.32;;;19.38;12.08
69689;BME280;56932;38.402;-96.176;2023-01-31T07:24:03;99042.91;;;18.30;12.60
69689;BME280;56932;38.402;-96.176;2023-01-31T07:26:28;99044.13;;;17.69;13.10
69689;BME280;56932;38.402;-96.176;2023-01-31T07:28:53;99047.28;;;18.91;12.65
69689;BME280;56932;38.402;-96.176;2023-01-31T07:31:20;99038.67;;;17.15;13.28
69689;BME280;56932;38.402;-96.176;2023-01-31T07:33:45;99037.78;;;17.99;13.18
69689;BME280;56932;38.402;-96.176;2023-01-31T07:36:13;99035.95;;;17.06;13.60
69689;BME280;56932;38.402;-96.176;2023-01-31T07:38:36;99032.56;;;17.64;13.46
69689;BME280;56932;38.402;-96.176;2023-01-31T07:41:03;99031.51;;;17.55;13.58
69689;BME280;56932;38.402;-96.176;2023-01-31T07:43:27;99032.12;;;17.63;13.45
69689;BME280;56932;38.402;-96.176;2023-01-31T07:45:52;99026.51;;;17.84;13.55
69689;BME280;56932;38.402;-96.176;2023-01-31T07:48:18;99023.16;;;17.71;13.55
69689;BME280;56932;38.402;-96.176;2023-01-31T07:50:43;99017.95;;;17.91;13.49
69689;BME280;56932;38.402;-96.176;2023-01-31T07:53:09;99014.30;;;17.75;13.52
69689;BME280;56932;38.402;-96.176;2023-01-31T07:55:34;99015.24;;;18.43;13.36
69689;BME280;56932;38.402;-96.176;2023-01-31T07:58:00;99019.68;;;18.85;13.06
69689;BME280;56932;38.402;-96.176;2023-01-31T08:00:26;99019.68;;;18.43;13.24
69689;BME280;56932;38.402;-96.176;2023-01-31T08:02:51;99015.63;;;18.99;13.16
69689;BME280;56932;38.402;-96.176;2023-01-31T08:05:17;99014.41;;;18.17;13.34
69689;BME280;56932;38.402;-96.176;2023-01-31T08:07:42;99012.02;;;18.38;13.41
69689;BME280;56932;38.402;-96.176;2023-01-31T08:10:09;99014.46;;;18.69;13.43
69689;BME280;56932;38.402;-96.176;2023-01-31T08:12:33;99019.97;;;19.03;13.38
69689;BME280;56932;38.402;-96.176;2023-01-31T08:14:59;99022.54;;;18.42;13.50
69689;BME280;56932;38.402;-96.176;2023-01-31T08:17:25;99024.36;;;18.58;13.43
69689;BME280;56932;38.402;-96.176;2023-01-31T08:19:50;99019.26;;;18.75;13.37
69689;BME280;56932;38.402;-96.176;2023-01-31T08:22:16;99019.50;;;18.15;13.48
69689;BME280;56932;38.402;-96.176;2023-01-31T08:24:41;99024.66;;;18.95;13.31
69689;BME280;56932;38.402;-96.176;2023-01-31T08:27:07;99024.87;;;19.25;13.07
69689;BME280;56932;38.402;-96.176;2023-01-31T08:29:32;99029.48;;;18.89;13.30
69689;BME280;56932;38.402;-96.176;2023-01-31T08:31:58;99017.66;;;18.54;13.40
69689;BME280;56932;38.402;-96.176;2023-01-31T08:34:24;99005.52;;;18.43;13.44
69689;BME280;56932;38.402;-96.176;2023-01-31T08:36:49;99010.83;;;18.60;13.48
69689;BME280;56932;38.402;-96.176;2023-01-31T08:39:15;99017.70;;;17.73;13.58
69689;BME280;56932;38.402;-96.176;2023-01-31T08:41:40;99011.59;;;18.71;13.40
69689;BME280;56932;38.402;-96.176;2023-01-31T08:44:06;99004.25;;;18.62;13.34
69689;BME280;56932;38.402;-96.176;2023-01-31T08:46:33;99003.70;;;18.96;13.06
69689;BME280;56932;38.402;-96.176;2023-01-31T08:48:57;99002.13;;;18.74;13.33
69689;BME280;56932;38.402;-96.176;2023-01-31T08:51:23;99013.65;;;18.63;13.13
69689;BME280;56932;38.402;-96.176;2023-01-31T08:53:48;99015.57;;;19.04;13.14
69689;BME280;56932;38.402;-96.176;2023-01-31T08:56:14;99024.32;;;18.99;12.94
69689;BME280;56932;38.402;-96.176;2023-01-31T08:58:41;99023.21;;;18.59;13.11
69689;BME280;56932;38.402;-96.176;2023-01-31T09:01:07;99020.89;;;20.30;12.35
69689;BME280;56932;38.402;-96.176;2023-01-31T09:03:30;99019.34;;;19.82;12.28
69689;BME280;56932;38.402;-96.176;2023-01-31T09:05:58;99019.08;;;20.07;12.34
69689;BME280;56932;38.402;-96.176;2023-01-31T09:08:21;99018.57;;;19.87;12.17
69689;BME280;56932;38.402;-96.176;2023-01-31T09:10:51;99028.09;;;20.41;11.88
69689;BME280;56932;38.402;-96.176;2023-01-31T09:13:13;99016.98;;;20.29;11.81
69689;BME280;56932;38.402;-96.176;2023-01-31T09:15:38;99010.19;;;20.60;11.90
69689;BME280;56932;38.402;-96.176;2023-01-31T09:18:04;99011.67;;;20.69;11.74
69689;BME280;56932;38.402;-96.176;2023-01-31T09:20:29;99008.50;;;20.81;11.67
69689;BME280;56932;38.402;-96.176;2023-01-31T09:22:55;99011.28;;;20.52;11.77
69689;BME280;56932;38.402;-96.176;2023-01-31T09:25:20;99011.57;;;20.28;11.82
69689;BME280;56932;38.402;-96.176;2023-01-31T09:27:46;99013.60;;;20.12;11.80
69689;BME280;56932;38.402;-96.176;2023-01-31T09:30:12;99007.12;;;19.95;11.74
69689;BME280;56932;38.402;-96.176;2023-01-31T09:32:37;99007.37;;;19.92;11.86
69689;BME280;56932;38.402;-96.176;2023-01-31T09:35:03;98999.39;;;20.03;11.79
69689;BME280;56932;38.402;-96.176;2023-01-31T09:37:29;98993.87;;;20.31;11.72
69689;BME280;56932;38.402;-96.176;2023-01-31T09:39:54;98984.75;;;20.19;11.79
69689;BME280;56932;38.402;-96.176;2023-01-31T09:42:22;98983.74;;;19.79;11.82
69689;BME280;56932;38.402;-96.176;2023-01-31T09:44:53;98985.53;;;19.90;11.86
69689;BME280;56932;38.402;-96.176;2023-01-31T09:47:16;98985.48;;;19.60;11.77
69689;BME280;56932;38.402;-96.176;2023-01-31T09:49:43;98978.76;;;20.16;11.70
69689;BME280;56932;38.402;-96.176;2023-01-31T09:52:03;98971.36;;;19.84;11.83
69689;BME280;56932;38.402;-96.176;2023-01-31T09:54:31;98961.94;;;19.62;11.79
69689;BME280;56932;38.402;-96.176;2023-01-31T09:56:59;98951.36;;;19.64;11.89
69689;BME280;56932;38.402;-96.176;2023-01-31T09:59:24;98945.05;;;19.31;12.01
69689;BME280;56932;38.402;-96.176;2023-01-31T10:01:49;98945.76;;;19.66;11.81
69689;BME280;56932;38.402;-96.176;2023-01-31T10:04:19;98940.73;;;19.91;11.79
69689;BME280;56932;38.402;-96.176;2023-01-31T10:06:42;98941.57;;;19.58;11.87
69689;BME280;56932;38.402;-96.176;2023-01-31T10:09:06;98965.41;;;19.88;11.85
69689;BME280;56932;38.402;-96.176;2023-01-31T10:11:33;99007.32;;;19.35;11.90
69689;BME280;56932;38.402;-96.176;2023-01-31T10:13:54;99025.72;;;19.65;11.85
69689;BME280;56932;38.402;-96.176;2023-01-31T10:16:22;99012.44;;;19.47;11.81
69689;BME280;56932;38.402;-96.176;2023-01-31T10:18:47;99006.72;;;19.63;11.97
69689;BME280;56932;38.402;-96.176;2023-01-31T10:21:12;98995.38;;;19.88;11.78
69689;BME280;56932;38.402;-96.176;2023-01-31T10:23:39;98993.90;;;18.96;11.98
69689;BME280;56932;38.402;-96.176;2023-01-31T10:26:01;98993.48;;;19.35;12.03
69689;BME280;56932;38.402;-96.176;2023-01-31T10:28:31;98985.85;;;19.19;11.81
69689;BME280;56932;38.402;-96.176;2023-01-31T10:30:57;98989.71;;;19.51;11.92
69689;BME280;56932;38.402;-96.176;2023-01-31T10:33:22;98995.51;;;19.25;11.89
69689;BME280;56932;38.402;-96.176;2023-01-31T10:35:44;98994.13;;;18.79;12.10
69689;BME280;56932;38.402;-96.176;2023-01-31T10:38:14;98989.92;;;18.81;12.04
69689;BME280;56932;38.402;-96.176;2023-01-31T10:40:36;98979.54;;;18.85;11.97
69689;BME280;56932;38.402;-96.176;2023-01-31T10:43:07;98978.36;;;19.07;11.84
69689;BME280;56932;38.402;-96.176;2023-01-31T10:45:26;98980.29;;;19.63;11.70
69689;BME280;56932;38.402;-96.176;2023-01-31T10:47:51;98976.01;;;18.73;12.21
69689;BME280;56932;38.402;-96.176;2023-01-31T10:50:18;98970.20;;;18.04;12.53
69689;BME280;56932;38.402;-96.176;2023-01-31T10:52:55;98968.22;;;18.18;12.71
69689;BME280;56932;38.402;-96.176;2023-01-31T10:55:20;98958.82;;;17.60;13.10
69689;BME280;56932;38.402;-96.176;2023-01-31T10:57:33;98957.92;;;18.15;12.85
69689;BME280;56932;38.402;-96.176;2023-01-31T10:59:58;98950.70;;;17.50;13.20
69689;BME280;56932;38.402;-96.176;2023-01-31T11:02:25;98959.66;;;17.71;13.03
69689;BME280;56932;38.402;-96.176;2023-01-31T11:04:51;98960.49;;;18.36;12.79
69689;BME280;56932;38.402;-96.176;2023-01-31T11:07:14;98958.38;;;17.06;13.34
69689;BME280;56932;38.402;-96.176;2023-01-31T11:09:42;98958.95;;;17.82;13.27
69689;BME280;56932;38.402;-96.176;2023-01-31T11:12:07;98960.43;;;17.97;13.21
69689;BME280;56932;38.402;-96.176;2023-01-31T11:14:32;98967.71;;;18.01;13.25
69689;BME280;56932;38.402;-96.176;2023-01-31T11:16:59;98962.32;;;18.14;13.24
69689;BME280;56932;38.402;-96.176;2023-01-31T11:19:28;98963.33;;;17.78;13.14
69689;BME280;56932;38.402;-96.176;2023-01-31T11:21:49;98971.52;;;18.21;13.19
69689;BME280;56932;38.402;-96.176;2023-01-31T11:24:16;98991.13;;;18.04;13.08
69689;BME280;56932;38.402;-96.176;2023-01-31T11:26:47;98994.17;;;18.48;12.99
69689;BME280;56932;38.402;-96.176;2023-01-31T11:29:09;98992.80;;;18.38;13.07
69689;BME280;56932;38.402;-96.176;2023-01-31T11:31:33;99001.49;;;18.32;13.13
69689;BME280;56932;38.402;-96.176;2023-01-31T11:33:58;99004.58;;;18.71;12.98
69689;BME280;56932;38.402;-96.176;2023-01-31T11:36:21;99019.26;;;18.58;12.86
69689;BME280;56932;38.402;-96.176;2023-01-31T11:38:47;99023.16;;;18.76;12.90
69689;BME280;56932;38.402;-96.176;2023-01-31T11:43:38;99019.84;;;18.67;13.08
69689;BME280;56932;38.402;-96.176;2023-01-31T11:46:04;99017.20;;;19.08;12.85
69689;BME280;56932;38.402;-96.176;2023-01-31T11:48:38;99027.17;;;18.91;13.18
69689;BME280;56932;38.402;-96.176;2023-01-31T11:50:57;99024.64;;;18.58;13.20
69689;BME280;56932;38.402;-96.176;2023-01-31T11:53:22;99028.36;;;18.12;13.24
69689;BME280;56932;38.402;-96.176;2023-01-31T11:55:47;99030.05;;;18.70;13.17
69689;BME280;56932;38.402;-96.176;2023-01-31T11:58:17;99033.52;;;18.81;12.95
69689;BME280;56932;38.402;-96.176;2023-01-31T12:00:37;99037.78;;;18.59;13.17
69689;BME280;56932;38.402;-96.176;2023-01-31T12:03:06;99043.20;;;19.12;13.03
69689;BME280;56932;38.402;-96.176;2023-01-31T12:05:35;99044.12;;;18.81;13.19
69689;BME280;56932;38.402;-96.176;2023-01-31T12:07:53;99049.95;;;18.78;13.08
69689;BME280;56932;38.402;-96.176;2023-01-31T12:10:25;99045.53;;;18.29;13.33
69689;BME280;56932;38.402;-96.176;2023-01-31T12:12:44;99052.43;;;19.04;12.94
69689;BME280;56932;38.402;-96.176;2023-01-31T12:15:14;99052.34;;;18.66;13.06
69689;BME280;56932;38.402;-96.176;2023-01-31T12:17:41;99038.12;;;18.74;12.98
69689;BME280;56932;38.402;-96.176;2023-01-31T12:20:10;99030.26;;;18.70;13.21
69689;BME280;56932;38.402;-96.176;2023-01-31T12:22:31;99028.28;;;18.55;13.05
69689;BME280;56932;38.402;-96.176;2023-01-31T12:25:02;99029.03;;;18.61;13.24
69689;BME280;56932;38.402;-96.176;2023-01-31T12:27:26;99022.80;;;18.81;12.90
69689;BME280;56932;38.402;-96.176;2023-01-31T12:29:57;99015.82;;;19.67;12.46
69689;BME280;56932;38.402;-96.176;2023-01-31T12:32:22;99013.93;;;19.88;12.35
69689;BME280;56932;38.402;-96.176;2023-01-31T12:34:47;99012.49;;;19.79;12.30
69689;BME280;56932;38.402;-96.176;2023-01-31T12:37:08;98998.68;;;20.42;11.99
69689;BME280;56932;38.402;-96.176;2023-01-31T12:39:39;98991.88;;;19.95;12.18